createdAt,value
2019-03-08T00:00:00.448Z,0.00
2019-03-08T00:01:00.438Z,0.00
2019-03-08T00:02:00.443Z,0.00
2019-03-08T00:03:00.415Z,0.00
2019-03-08T00:04:00.407Z,0.00
2019-03-08T00:05:00.406Z,0.00
2019-03-08T00:06:00.386Z,0.00
2019-03-08T00:07:00.372Z,0.00
2019-03-08T00:08:00.379Z,0.00
2019-03-08T00:09:00.346Z,0.00
2019-03-08T00:10:00.363Z,0.00
2019-03-08T00:11:00.347Z,0.00
2019-03-08T00:12:00.320Z,0.00
2019-03-08T00:13:00.305Z,0.00
2019-03-08T00:14:00.303Z,0.00
2019-03-08T00:15:00.359Z,0.00
2019-03-08T00:16:00.271Z,0.00
2019-03-08T00:17:00.272Z,0.00
2019-03-08T00:18:00.249Z,0.00
2019-03-08T00:19:00.249Z,0.00
2019-03-08T00:20:00.314Z,0.00
2019-03-08T00:21:00.218Z,0.00
2019-03-08T00:22:00.211Z,0.00
2019-03-08T00:23:00.206Z,0.00
2019-03-08T00:24:00.199Z,0.00
2019-03-08T00:25:00.308Z,0.00
2019-03-08T00:26:00.162Z,0.00
2019-03-08T00:27:00.147Z,0.00
2019-03-08T00:28:00.151Z,0.00
2019-03-08T00:29:00.127Z,0.00
2019-03-08T00:30:00.127Z,0.00
2019-03-08T00:31:00.115Z,0.00
2019-03-08T00:32:00.091Z,0.00
2019-03-08T00:33:00.079Z,0.00
2019-03-08T00:34:00.073Z,0.00
2019-03-08T00:35:00.059Z,0.00
2019-03-08T00:36:00.084Z,0.00
2019-03-08T00:37:00.040Z,0.00
2019-03-08T00:38:00.051Z,0.00
2019-03-08T00:39:00.020Z,0.00
2019-03-08T00:40:00.003Z,0.00
2019-03-08T00:40:59.990Z,0.00
2019-03-08T00:42:00.010Z,0.00
2019-03-08T00:42:59.972Z,0.00
2019-03-08T00:43:59.959Z,0.00
2019-03-08T00:44:59.947Z,0.00
2019-03-08T00:45:59.935Z,0.00
2019-03-08T00:46:59.927Z,0.00
2019-03-08T00:47:59.951Z,0.00
2019-03-08T00:48:59.903Z,0.00
2019-03-08T00:49:59.895Z,0.00
2019-03-08T00:50:59.878Z,0.00
2019-03-08T00:51:59.866Z,0.00
2019-03-08T00:52:59.883Z,0.00
2019-03-08T00:53:59.867Z,0.00
2019-03-08T00:54:59.835Z,0.00
2019-03-08T00:55:59.823Z,0.00
2019-03-08T00:56:59.815Z,0.00
2019-03-08T00:57:59.805Z,0.00
2019-03-08T00:58:59.811Z,0.00
2019-03-08T00:59:59.790Z,0.00
2019-03-08T01:00:59.771Z,0.00
2019-03-08T01:01:59.759Z,0.00
2019-03-08T01:02:59.747Z,0.00
2019-03-08T01:03:59.734Z,0.00
2019-03-08T01:04:59.735Z,0.00
2019-03-08T01:05:59.723Z,0.00
2019-03-08T01:06:59.707Z,0.00
2019-03-08T01:07:59.723Z,0.00
2019-03-08T01:08:59.681Z,0.00
2019-03-08T01:09:59.668Z,0.00
2019-03-08T01:10:59.659Z,0.00
2019-03-08T01:11:59.678Z,0.00
2019-03-08T01:12:59.634Z,0.00
2019-03-08T01:13:59.639Z,0.00
2019-03-08T01:14:59.614Z,0.00
2019-03-08T01:15:59.606Z,0.00
2019-03-08T01:16:59.591Z,0.00
2019-03-08T01:17:59.611Z,0.00
2019-03-08T01:18:59.570Z,0.00
2019-03-08T01:19:59.554Z,0.00
2019-03-08T01:20:59.543Z,0.00
2019-03-08T01:21:59.534Z,0.00
2019-03-08T01:22:59.531Z,0.00
2019-03-08T01:23:59.531Z,0.00
2019-03-08T01:24:59.515Z,0.00
2019-03-08T01:25:59.491Z,0.00
2019-03-08T01:26:59.490Z,0.00
2019-03-08T01:27:59.491Z,0.00
2019-03-08T01:28:59.455Z,0.00
2019-03-08T01:29:59.454Z,0.00
2019-03-08T01:30:59.442Z,0.00
2019-03-08T01:31:59.422Z,0.00
2019-03-08T01:32:59.411Z,0.00
2019-03-08T01:33:59.403Z,0.00
2019-03-08T01:34:59.386Z,0.00
2019-03-08T01:35:59.407Z,0.00
2019-03-08T01:36:59.367Z,0.00
2019-03-08T01:37:59.353Z,0.00
2019-03-08T01:38:59.347Z,0.00
2019-03-08T01:39:59.331Z,0.00
2019-03-08T01:40:59.322Z,0.00
2019-03-08T01:41:59.334Z,0.00
2019-03-08T01:42:59.318Z,0.00
2019-03-08T01:43:59.286Z,0.00
2019-03-08T01:44:59.283Z,0.00
2019-03-08T01:45:59.266Z,0.00
2019-03-08T01:46:59.262Z,0.00
2019-03-08T01:47:59.259Z,0.00
2019-03-08T01:48:59.267Z,0.00
2019-03-08T01:49:59.226Z,0.00
2019-03-08T01:50:59.210Z,0.00
2019-03-08T01:51:59.199Z,0.00
2019-03-08T01:52:59.189Z,0.00
2019-03-08T01:53:59.228Z,0.00
2019-03-08T01:54:59.167Z,0.00
2019-03-08T01:55:59.155Z,0.00
2019-03-08T01:56:59.142Z,0.00
2019-03-08T01:57:59.135Z,0.00
2019-03-08T01:58:59.127Z,0.00
2019-03-08T01:59:59.143Z,0.00
2019-03-08T02:00:59.099Z,0.00
2019-03-08T02:01:59.087Z,0.00
2019-03-08T02:02:59.078Z,0.00
2019-03-08T02:03:59.075Z,0.00
2019-03-08T02:04:59.057Z,0.00
2019-03-08T02:05:59.079Z,0.00
2019-03-08T02:06:59.035Z,0.00
2019-03-08T02:07:59.023Z,0.00
2019-03-08T02:08:59.011Z,0.00
2019-03-08T02:09:58.998Z,0.00
2019-03-08T02:10:58.992Z,0.00
2019-03-08T02:11:59.005Z,0.00
2019-03-08T02:12:58.967Z,0.00
2019-03-08T02:13:58.954Z,0.00
2019-03-08T02:14:58.946Z,0.00
2019-03-08T02:15:58.935Z,0.00
2019-03-08T02:16:58.923Z,0.00
2019-03-08T02:17:58.939Z,0.00
2019-03-08T02:18:58.900Z,0.00
2019-03-08T02:19:58.890Z,0.00
2019-03-08T02:21:06.408Z,0.00
2019-03-08T02:21:59.867Z,0.00
2019-03-08T02:22:58.870Z,0.00
2019-03-08T02:23:58.859Z,0.00
2019-03-08T02:24:58.835Z,0.00
2019-03-08T02:25:58.826Z,0.00
2019-03-08T02:26:58.810Z,0.00
2019-03-08T02:27:58.811Z,0.00
2019-03-08T02:28:58.805Z,0.00
2019-03-08T02:29:58.783Z,0.00
2019-03-08T02:30:58.767Z,0.00
2019-03-08T02:31:58.758Z,0.00
2019-03-08T02:32:58.749Z,0.00
2019-03-08T02:33:58.746Z,0.00
2019-03-08T02:34:58.726Z,0.00
2019-03-08T02:35:58.742Z,0.00
2019-03-08T02:36:58.702Z,0.00
2019-03-08T02:37:58.691Z,0.00
2019-03-08T02:38:58.679Z,0.00
2019-03-08T02:39:58.678Z,0.00
2019-03-08T02:40:58.660Z,0.00
2019-03-08T02:41:58.686Z,0.00
2019-03-08T02:42:58.634Z,0.00
2019-03-08T02:43:58.622Z,0.00
2019-03-08T02:44:58.610Z,0.00
2019-03-08T02:45:58.602Z,0.00
2019-03-08T02:46:58.590Z,0.00
2019-03-08T02:47:58.623Z,0.00
2019-03-08T02:48:58.570Z,0.00
2019-03-08T02:49:58.559Z,0.00
2019-03-08T02:50:58.546Z,0.00
2019-03-08T02:51:58.535Z,0.00
2019-03-08T02:52:58.530Z,0.00
2019-03-08T02:53:58.528Z,0.00
2019-03-08T02:54:58.502Z,0.00
2019-03-08T02:55:58.490Z,0.00
2019-03-08T02:56:58.483Z,0.00
2019-03-08T02:57:58.470Z,0.00
2019-03-08T02:58:58.495Z,0.00
2019-03-08T02:59:58.454Z,0.00
2019-03-08T03:00:58.435Z,0.00
2019-03-08T03:01:58.422Z,0.00
2019-03-08T03:02:58.418Z,0.00
2019-03-08T03:03:58.405Z,0.00
2019-03-08T03:04:58.422Z,0.00
2019-03-08T03:05:58.383Z,0.00
2019-03-08T03:06:58.367Z,0.00
2019-03-08T03:07:58.358Z,0.00
2019-03-08T03:08:58.347Z,0.00
2019-03-08T03:09:58.350Z,0.00
2019-03-08T03:10:58.342Z,0.00
2019-03-08T03:11:58.326Z,0.00
2019-03-08T03:12:58.303Z,0.00
2019-03-08T03:13:58.294Z,0.00
2019-03-08T03:14:58.278Z,0.00
2019-03-08T03:15:58.270Z,0.00
2019-03-08T03:16:58.289Z,0.00
2019-03-08T03:17:58.279Z,0.00
2019-03-08T03:18:58.235Z,0.00
2019-03-08T03:19:58.226Z,0.00
2019-03-08T03:20:58.215Z,0.00
2019-03-08T03:21:58.202Z,0.00
2019-03-08T03:22:58.202Z,0.00
2019-03-08T03:23:58.191Z,0.00
2019-03-08T03:24:58.170Z,0.00
2019-03-08T03:25:58.162Z,0.00
2019-03-08T03:26:58.158Z,0.00
2019-03-08T03:27:58.134Z,0.00
2019-03-08T03:28:58.126Z,0.00
2019-03-08T03:29:58.138Z,0.00
2019-03-08T03:30:58.147Z,0.00
2019-03-08T03:31:58.091Z,0.00
2019-03-08T03:32:58.085Z,0.00
2019-03-08T03:33:58.074Z,0.00
2019-03-08T03:34:58.058Z,0.00
2019-03-08T03:35:58.050Z,0.00
2019-03-08T03:36:58.078Z,0.00
2019-03-08T03:37:58.026Z,0.00
2019-03-08T03:38:58.014Z,0.00
2019-03-08T03:39:58.006Z,0.00
2019-03-08T03:40:57.991Z,0.00
2019-03-08T03:41:57.978Z,0.00
2019-03-08T03:42:57.994Z,0.00
2019-03-08T03:43:57.963Z,0.00
2019-03-08T03:44:57.946Z,0.00
2019-03-08T03:45:57.935Z,0.00
2019-03-08T03:46:57.926Z,0.00
2019-03-08T03:47:57.926Z,0.00
2019-03-08T03:48:57.934Z,0.00
2019-03-08T03:49:57.906Z,0.00
2019-03-08T03:50:57.882Z,0.00
2019-03-08T03:51:57.889Z,0.00
2019-03-08T03:52:57.858Z,0.00
2019-03-08T03:53:57.846Z,0.00
2019-03-08T03:54:57.875Z,0.00
2019-03-08T03:55:57.826Z,0.00
2019-03-08T03:56:57.814Z,0.00
2019-03-08T03:57:57.802Z,0.00
2019-03-08T03:58:57.802Z,0.00
2019-03-08T03:59:57.784Z,0.00
2019-03-08T04:00:57.790Z,0.00
2019-03-08T04:01:57.758Z,0.00
2019-03-08T04:02:57.748Z,0.00
2019-03-08T04:03:57.742Z,0.00
2019-03-08T04:04:57.750Z,0.00
2019-03-08T04:05:57.715Z,0.00
2019-03-08T04:06:57.724Z,0.00
2019-03-08T04:07:57.690Z,0.00
2019-03-08T04:08:57.686Z,0.00
2019-03-08T04:09:57.671Z,0.00
2019-03-08T04:10:57.678Z,0.00
2019-03-08T04:11:57.646Z,0.00
2019-03-08T04:12:57.653Z,0.00
2019-03-08T04:13:57.642Z,0.00
2019-03-08T04:14:57.614Z,0.00
2019-03-08T04:15:57.606Z,0.00
2019-03-08T04:16:57.610Z,0.00
2019-03-08T04:17:57.610Z,0.00
2019-03-08T04:18:57.570Z,0.00
2019-03-08T04:19:57.582Z,0.00
2019-03-08T04:20:57.546Z,0.00
2019-03-08T04:21:57.547Z,0.00
2019-03-08T04:22:57.538Z,0.00
2019-03-08T04:23:57.514Z,0.00
2019-03-08T04:24:57.507Z,0.00
2019-03-08T04:25:57.495Z,0.00
2019-03-08T04:26:57.498Z,0.00
2019-03-08T04:27:57.494Z,0.00
2019-03-08T04:28:57.458Z,0.00
2019-03-08T04:29:57.447Z,0.00
2019-03-08T04:30:57.438Z,0.00
2019-03-08T04:31:57.426Z,0.00
2019-03-08T04:32:57.425Z,0.00
2019-03-08T04:33:57.414Z,0.00
2019-03-08T04:34:57.405Z,0.00
2019-03-08T04:35:57.454Z,0.00
2019-03-08T04:36:57.389Z,0.00
2019-03-08T04:37:57.384Z,0.00
2019-03-08T04:38:57.374Z,0.00
2019-03-08T04:39:57.380Z,0.00
2019-03-08T04:40:57.338Z,0.00
2019-03-08T04:41:57.326Z,0.00
2019-03-08T04:42:57.306Z,0.00
2019-03-08T04:43:57.294Z,0.00
2019-03-08T04:44:57.281Z,0.00
2019-03-08T04:45:57.290Z,0.00
2019-03-08T04:46:57.274Z,0.00
2019-03-08T04:47:57.251Z,0.00
2019-03-08T04:48:57.238Z,0.00
2019-03-08T04:49:57.227Z,0.00
2019-03-08T04:50:57.214Z,0.00
2019-03-08T04:51:57.218Z,0.00
2019-03-08T04:52:57.218Z,0.00
2019-03-08T04:53:57.185Z,0.00
2019-03-08T04:54:57.170Z,0.00
2019-03-08T04:55:57.158Z,0.00
2019-03-08T04:56:57.150Z,0.00
2019-03-08T04:57:57.150Z,0.00
2019-03-08T04:58:57.145Z,0.00
2019-03-08T04:59:57.114Z,0.00
2019-03-08T05:00:57.107Z,0.00
2019-03-08T05:01:57.098Z,0.00
2019-03-08T05:02:57.101Z,0.00
2019-03-08T05:03:57.075Z,0.00
2019-03-08T05:04:57.074Z,0.00
2019-03-08T05:05:57.050Z,0.00
2019-03-08T05:06:57.038Z,0.00
2019-03-08T05:07:57.030Z,0.00
2019-03-08T05:08:57.026Z,0.00
2019-03-08T05:09:57.006Z,0.00
2019-03-08T05:10:57.034Z,0.00
2019-03-08T05:11:56.983Z,0.00
2019-03-08T05:12:56.970Z,0.00
2019-03-08T05:13:56.981Z,0.00
2019-03-08T05:14:56.961Z,0.00
2019-03-08T05:15:56.941Z,0.00
2019-03-08T05:16:56.946Z,0.00
2019-03-08T05:17:58.456Z,0.00
2019-03-08T05:18:56.906Z,0.00
2019-03-08T05:19:56.976Z,0.00
2019-03-08T05:20:56.882Z,0.00
2019-03-08T05:21:56.870Z,0.00
2019-03-08T05:22:56.882Z,0.00
2019-03-08T05:23:56.849Z,0.00
2019-03-08T05:24:56.842Z,0.00
2019-03-08T05:25:56.842Z,0.00
2019-03-08T05:26:56.814Z,0.00
2019-03-08T05:27:56.805Z,0.00
2019-03-08T05:28:56.818Z,0.00
2019-03-08T05:29:56.781Z,0.00
2019-03-08T05:30:56.769Z,0.00
2019-03-08T05:31:56.774Z,0.00
2019-03-08T05:32:56.749Z,0.00
2019-03-08T05:33:56.738Z,0.00
2019-03-08T05:34:56.738Z,0.00
2019-03-08T05:35:56.719Z,4.00
2019-03-08T05:36:56.707Z,4.00
2019-03-08T05:37:56.705Z,0.00
2019-03-08T05:38:56.682Z,4.00
2019-03-08T05:39:56.674Z,4.00
2019-03-08T05:40:56.694Z,4.00
2019-03-08T05:41:56.650Z,0.00
2019-03-08T05:42:56.654Z,4.00
2019-03-08T05:43:56.629Z,8.00
2019-03-08T05:44:56.617Z,4.00
2019-03-08T05:45:56.605Z,4.00
2019-03-08T05:46:56.617Z,8.00
2019-03-08T05:47:56.581Z,12.00
2019-03-08T05:48:56.588Z,12.00
2019-03-08T05:49:56.561Z,16.00
2019-03-08T05:50:56.549Z,16.00
2019-03-08T05:51:56.537Z,16.00
2019-03-08T05:52:56.550Z,20.00
2019-03-08T05:53:56.529Z,24.00
2019-03-08T05:54:56.506Z,24.00
2019-03-08T05:55:56.493Z,28.00
2019-03-08T05:56:56.482Z,28.00
2019-03-08T05:57:56.477Z,36.00
2019-03-08T05:58:56.505Z,40.00
2019-03-08T05:59:56.449Z,44.00
2019-03-08T06:00:56.441Z,40.00
2019-03-08T06:01:56.434Z,44.00
2019-03-08T06:02:56.417Z,48.00
2019-03-08T06:03:56.405Z,60.00
2019-03-08T06:04:56.421Z,76.00
2019-03-08T06:05:56.398Z,84.00
2019-03-08T06:06:56.374Z,76.00
2019-03-08T06:07:56.377Z,80.00
2019-03-08T06:08:56.353Z,76.00
2019-03-08T06:09:56.338Z,76.00
2019-03-08T06:10:56.345Z,84.00
2019-03-08T06:11:56.322Z,84.00
2019-03-08T06:12:56.305Z,100.00
2019-03-08T06:13:56.317Z,104.00
2019-03-08T06:14:56.293Z,120.00
2019-03-08T06:15:56.278Z,132.00
2019-03-08T06:16:56.269Z,132.00
2019-03-08T06:17:56.542Z,156.00
2019-03-08T06:18:56.253Z,152.00
2019-03-08T06:19:56.234Z,160.00
2019-03-08T06:20:56.217Z,164.00
2019-03-08T06:21:56.206Z,160.00
2019-03-08T06:22:56.205Z,164.00
2019-03-08T06:23:56.185Z,196.00
2019-03-08T06:24:56.189Z,208.00
2019-03-08T06:25:56.162Z,228.00
2019-03-08T06:26:56.151Z,244.00
2019-03-08T06:27:56.146Z,236.00
2019-03-08T06:28:56.133Z,272.00
2019-03-08T06:29:56.121Z,328.00
2019-03-08T06:30:56.121Z,396.00
2019-03-08T06:31:56.094Z,340.00
2019-03-08T06:32:56.083Z,356.00
2019-03-08T06:33:56.074Z,268.00
2019-03-08T06:34:56.067Z,188.00
2019-03-08T06:35:56.064Z,236.00
2019-03-08T06:36:56.058Z,280.00
2019-03-08T06:37:56.029Z,304.00
2019-03-08T06:38:56.019Z,344.00
2019-03-08T06:39:56.010Z,476.00
2019-03-08T06:40:55.995Z,440.00
2019-03-08T06:41:55.987Z,444.00
2019-03-08T06:42:55.986Z,472.00
2019-03-08T06:43:55.964Z,516.00
2019-03-08T06:44:55.956Z,456.00
2019-03-08T06:45:55.939Z,468.00
2019-03-08T06:46:55.934Z,580.00
2019-03-08T06:47:55.949Z,604.00
2019-03-08T06:48:55.910Z,616.00
2019-03-08T06:49:55.898Z,692.00
2019-03-08T06:50:55.890Z,748.00
2019-03-08T06:51:55.874Z,688.00
2019-03-08T06:52:55.874Z,660.00
2019-03-08T06:53:55.870Z,704.00
2019-03-08T06:54:55.839Z,660.00
2019-03-08T06:55:55.848Z,696.00
2019-03-08T06:56:55.819Z,776.00
2019-03-08T06:57:55.806Z,872.00
2019-03-08T06:58:55.798Z,856.00
2019-03-08T06:59:55.810Z,920.00
2019-03-08T07:00:55.774Z,844.00
2019-03-08T07:01:55.774Z,860.00
2019-03-08T07:02:55.753Z,784.00
2019-03-08T07:03:55.758Z,804.00
2019-03-08T07:04:55.730Z,704.00
2019-03-08T07:05:55.730Z,736.00
2019-03-08T07:06:55.706Z,688.00
2019-03-08T07:07:55.696Z,644.00
2019-03-08T07:08:55.688Z,648.00
2019-03-08T07:09:55.682Z,744.00
2019-03-08T07:10:55.682Z,720.00
2019-03-08T07:11:55.654Z,696.00
2019-03-08T07:13:02.814Z,716.00
2019-03-08T07:13:56.629Z,680.00
2019-03-08T07:14:55.618Z,680.00
2019-03-08T07:15:55.622Z,844.00
2019-03-08T07:16:55.596Z,740.00
2019-03-08T07:17:55.594Z,780.00
2019-03-08T07:18:55.586Z,876.00
2019-03-08T07:19:55.563Z,728.00
2019-03-08T07:20:55.551Z,800.00
2019-03-08T07:21:55.550Z,852.00
2019-03-08T07:22:55.530Z,980.00
2019-03-08T07:23:55.518Z,972.00
2019-03-08T07:24:55.518Z,1040.00
2019-03-08T07:25:55.507Z,960.00
2019-03-08T07:26:55.484Z,944.00
2019-03-08T07:27:55.478Z,1064.00
2019-03-08T07:28:57.396Z,1332.00
2019-03-08T07:29:55.455Z,1480.00
2019-03-08T07:30:58.215Z,1340.00
2019-03-08T07:31:55.438Z,1268.00
2019-03-08T07:32:55.422Z,1104.00
2019-03-08T07:33:55.410Z,1136.00
2019-03-08T07:34:55.399Z,1312.00
2019-03-08T07:35:55.387Z,1356.00
2019-03-08T07:36:55.402Z,1164.00
2019-03-08T07:37:55.377Z,1368.00
2019-03-08T07:38:55.352Z,1552.00
2019-03-08T07:39:55.346Z,1584.00
2019-03-08T07:40:55.331Z,1580.00
2019-03-08T07:41:55.329Z,1552.00
2019-03-08T07:42:55.340Z,1796.00
2019-03-08T07:43:55.299Z,2052.00
2019-03-08T07:44:55.287Z,2332.00
2019-03-08T07:45:55.275Z,2524.00
2019-03-08T07:46:55.264Z,2404.00
2019-03-08T07:47:55.254Z,2264.00
2019-03-08T07:48:55.275Z,2248.00
2019-03-08T07:49:55.231Z,2424.00
2019-03-08T07:50:55.218Z,2496.00
2019-03-08T07:51:55.207Z,2408.00
2019-03-08T07:52:55.199Z,2272.00
2019-03-08T07:53:55.189Z,2188.00
2019-03-08T07:54:55.189Z,2036.00
2019-03-08T07:55:55.169Z,1812.00
2019-03-08T07:56:55.152Z,1656.00
2019-03-08T07:57:55.139Z,1440.00
2019-03-08T07:58:55.136Z,1332.00
2019-03-08T07:59:55.137Z,1452.00
2019-03-08T08:00:55.110Z,1712.00
2019-03-08T08:01:55.094Z,1644.00
2019-03-08T08:03:03.319Z,1904.00
2019-03-08T08:03:56.071Z,2180.00
2019-03-08T08:04:55.064Z,2468.00
2019-03-08T08:05:58.251Z,2600.00
2019-03-08T08:06:55.062Z,2728.00
2019-03-08T08:07:55.028Z,2680.00
2019-03-08T08:08:55.030Z,2688.00
2019-03-08T08:09:55.009Z,2740.00
2019-03-08T08:10:54.995Z,2628.00
2019-03-08T08:11:54.998Z,2588.00
2019-03-08T08:12:54.987Z,2544.00
2019-03-08T08:13:54.963Z,2492.00
2019-03-08T08:14:54.976Z,2672.00
2019-03-08T08:15:54.939Z,2912.00
2019-03-08T08:16:54.927Z,3108.00
2019-03-08T08:17:54.928Z,3208.00
2019-03-08T08:18:54.918Z,3136.00
2019-03-08T08:19:54.894Z,3160.00
2019-03-08T08:20:54.887Z,3036.00
2019-03-08T08:21:54.895Z,2992.00
2019-03-08T08:22:54.867Z,3144.00
2019-03-08T08:23:54.855Z,3140.00
2019-03-08T08:24:54.855Z,3164.00
2019-03-08T08:25:54.834Z,3128.00
2019-03-08T08:26:54.823Z,3100.00
2019-03-08T08:27:54.821Z,3016.00
2019-03-08T08:28:55.963Z,2924.00
2019-03-08T08:29:54.780Z,2892.00
2019-03-08T08:30:54.774Z,2720.00
2019-03-08T08:31:54.774Z,2528.00
2019-03-08T08:32:54.750Z,2468.00
2019-03-08T08:33:54.750Z,2468.00
2019-03-08T08:34:54.727Z,2484.00
2019-03-08T08:35:54.722Z,2500.00
2019-03-08T08:36:54.707Z,2812.00
2019-03-08T08:37:54.707Z,3232.00
2019-03-08T08:38:54.702Z,3212.00
2019-03-08T08:39:54.670Z,2944.00
2019-03-08T08:40:54.667Z,2872.00
2019-03-08T08:41:54.646Z,2944.00
2019-03-08T08:42:54.639Z,3088.00
2019-03-08T08:43:54.650Z,3056.00
2019-03-08T08:44:54.627Z,2724.00
2019-03-08T08:45:54.606Z,2456.00
2019-03-08T08:46:54.592Z,2376.00
2019-03-08T08:47:54.587Z,2700.00
2019-03-08T08:48:54.570Z,3120.00
2019-03-08T08:49:55.739Z,3412.00
2019-03-08T08:50:54.559Z,3360.00
2019-03-08T08:51:54.539Z,4120.00
2019-03-08T08:52:54.530Z,4208.00
2019-03-08T08:53:54.514Z,4136.00
2019-03-08T08:54:54.506Z,4860.00
2019-03-08T08:55:54.538Z,5076.00
2019-03-08T08:56:54.482Z,5240.00
2019-03-08T08:57:54.469Z,5216.00
2019-03-08T08:58:54.466Z,5420.00
2019-03-08T08:59:54.449Z,5312.00
2019-03-08T09:00:54.457Z,5124.00
2019-03-08T09:01:54.437Z,3788.00
2019-03-08T09:02:54.417Z,3452.00
2019-03-08T09:03:54.404Z,3420.00
2019-03-08T09:04:54.395Z,3640.00
2019-03-08T09:05:56.365Z,3264.00
2019-03-08T09:06:54.378Z,2780.00
2019-03-08T09:07:54.366Z,2828.00
2019-03-08T09:08:54.355Z,2760.00
2019-03-08T09:09:54.340Z,2956.00
2019-03-08T09:10:54.338Z,2760.00
2019-03-08T09:11:54.335Z,2752.00
2019-03-08T09:12:54.301Z,3532.00
2019-03-08T09:13:54.303Z,4764.00
2019-03-08T09:14:54.283Z,4540.00
2019-03-08T09:15:54.269Z,4216.00
2019-03-08T09:16:54.259Z,4248.00
2019-03-08T09:17:54.262Z,3908.00
2019-03-08T09:18:54.235Z,3104.00
2019-03-08T09:19:54.231Z,2984.00
2019-03-08T09:20:54.214Z,2728.00
2019-03-08T09:21:54.203Z,4036.00
2019-03-08T09:22:54.194Z,4244.00
2019-03-08T09:23:54.205Z,3288.00
2019-03-08T09:24:54.171Z,2604.00
2019-03-08T09:25:54.171Z,2572.00
2019-03-08T09:26:54.145Z,2556.00
2019-03-08T09:27:54.137Z,2504.00
2019-03-08T09:28:54.129Z,2400.00
2019-03-08T09:29:54.126Z,2348.00
2019-03-08T09:30:54.108Z,2396.00
2019-03-08T09:31:54.095Z,2232.00
2019-03-08T09:32:59.197Z,2060.00
2019-03-08T09:33:55.074Z,1652.00
2019-03-08T09:34:54.069Z,1556.00
2019-03-08T09:35:54.045Z,1624.00
2019-03-08T09:36:54.041Z,1584.00
2019-03-08T09:37:54.049Z,1660.00
2019-03-08T09:38:54.013Z,1748.00
2019-03-08T09:39:54.012Z,2176.00
2019-03-08T09:40:54.007Z,3020.00
2019-03-08T09:41:53.981Z,3572.00
2019-03-08T09:42:53.981Z,3844.00
2019-03-08T09:43:53.961Z,4160.00
2019-03-08T09:44:53.945Z,4616.00
2019-03-08T09:45:53.932Z,4772.00
2019-03-08T09:46:53.935Z,3552.00
2019-03-08T09:47:53.919Z,2848.00
2019-03-08T09:48:53.913Z,2356.00
2019-03-08T09:49:53.898Z,2412.00
2019-03-08T09:50:53.879Z,3168.00
2019-03-08T09:51:53.871Z,4452.00
2019-03-08T09:52:53.857Z,4016.00
2019-03-08T09:53:53.849Z,3532.00
2019-03-08T09:54:53.847Z,3256.00
2019-03-08T09:55:53.837Z,3188.00
2019-03-08T09:56:53.813Z,3356.00
2019-03-08T09:57:53.803Z,3152.00
2019-03-08T09:58:53.801Z,2960.00
2019-03-08T09:59:53.789Z,3216.00
2019-03-08T10:00:53.786Z,3120.00
2019-03-08T10:01:53.768Z,3100.00
2019-03-08T10:02:53.749Z,3764.00
2019-03-08T10:03:53.733Z,3960.00
2019-03-08T10:04:53.742Z,4088.00
2019-03-08T10:05:53.719Z,3848.00
2019-03-08T10:06:53.701Z,3680.00
2019-03-08T10:07:53.689Z,3552.00
2019-03-08T10:08:53.690Z,3544.00
2019-03-08T10:09:53.665Z,3452.00
2019-03-08T10:10:53.673Z,3288.00
2019-03-08T10:11:53.645Z,3072.00
2019-03-08T10:12:53.632Z,2820.00
2019-03-08T10:13:53.621Z,2656.00
2019-03-08T10:14:53.631Z,2572.00
2019-03-08T10:15:53.611Z,2600.00
2019-03-08T10:16:53.606Z,2584.00
2019-03-08T10:17:53.577Z,3288.00
2019-03-08T10:18:53.567Z,2608.00
2019-03-08T10:19:53.602Z,3844.00
2019-03-08T10:20:53.551Z,3800.00
2019-03-08T10:21:53.533Z,3816.00
2019-03-08T10:22:53.534Z,3780.00
2019-03-08T10:23:53.559Z,3784.00
2019-03-08T10:24:53.503Z,3764.00
2019-03-08T10:25:53.490Z,3764.00
2019-03-08T10:26:53.493Z,3748.00
2019-03-08T10:27:53.483Z,3784.00
2019-03-08T10:28:53.456Z,3804.00
2019-03-08T10:29:53.446Z,3800.00
2019-03-08T10:30:53.434Z,3816.00
2019-03-08T10:31:54.284Z,3824.00
2019-03-08T10:32:53.426Z,3828.00
2019-03-08T10:33:53.411Z,3840.00
2019-03-08T10:34:53.405Z,3888.00
2019-03-08T10:35:53.381Z,3932.00
2019-03-08T10:36:53.365Z,3996.00
2019-03-08T10:37:53.369Z,4072.00
2019-03-08T10:38:53.351Z,4088.00
2019-03-08T10:39:53.341Z,4144.00
2019-03-08T10:40:53.321Z,4288.00
2019-03-08T10:41:53.311Z,4508.00
2019-03-08T10:42:53.298Z,4768.00
2019-03-08T10:43:53.313Z,5184.00
2019-03-08T10:44:53.279Z,5528.00
2019-03-08T10:45:53.289Z,5848.00
2019-03-08T10:46:53.253Z,6180.00
2019-03-08T10:47:56.300Z,7164.00
2019-03-08T10:48:53.230Z,7968.00
2019-03-08T10:49:55.451Z,7684.00
2019-03-08T10:50:53.215Z,7028.00
2019-03-08T10:51:53.205Z,7376.00
2019-03-08T10:52:53.187Z,7300.00
2019-03-08T10:54:00.420Z,6796.00
2019-03-08T10:54:54.162Z,4820.00
2019-03-08T10:55:53.168Z,4708.00
2019-03-08T10:56:53.143Z,6344.00
2019-03-08T10:57:53.151Z,6272.00
2019-03-08T10:58:55.122Z,4236.00
2019-03-08T10:59:53.122Z,5424.00
2019-03-08T11:00:53.097Z,5008.00
2019-03-08T11:01:53.095Z,4760.00
2019-03-08T11:02:53.075Z,3620.00
2019-03-08T11:03:53.080Z,3936.00
2019-03-08T11:04:53.053Z,4196.00
2019-03-08T11:05:53.055Z,4952.00
2019-03-08T11:06:53.031Z,3252.00
2019-03-08T11:07:53.019Z,2700.00
2019-03-08T11:08:53.006Z,3104.00
2019-03-08T11:09:53.009Z,3292.00
2019-03-08T11:10:52.990Z,3836.00
2019-03-08T11:11:52.983Z,4364.00
2019-03-08T11:12:52.963Z,5176.00
2019-03-08T11:13:52.950Z,4336.00
2019-03-08T11:14:52.943Z,5160.00
2019-03-08T11:15:52.951Z,5080.00
2019-03-08T11:16:52.929Z,5052.00
2019-03-08T11:17:52.906Z,6764.00
2019-03-08T11:18:52.897Z,5064.00
2019-03-08T11:19:52.883Z,6304.00
2019-03-08T11:20:52.875Z,6488.00
2019-03-08T11:21:52.894Z,7084.00
2019-03-08T11:22:52.854Z,7308.00
2019-03-08T11:23:52.840Z,6512.00
2019-03-08T11:24:52.831Z,5948.00
2019-03-08T11:25:52.819Z,5736.00
2019-03-08T11:26:52.806Z,5160.00
2019-03-08T11:27:52.831Z,5520.00
2019-03-08T11:28:52.787Z,5808.00
2019-03-08T11:29:52.777Z,6612.00
2019-03-08T11:30:54.225Z,7096.00
2019-03-08T11:31:52.751Z,6812.00
2019-03-08T11:32:52.743Z,6104.00
2019-03-08T11:33:52.745Z,4836.00
2019-03-08T11:34:52.721Z,4840.00
2019-03-08T11:35:52.708Z,6472.00
2019-03-08T11:36:52.694Z,5832.00
2019-03-08T11:37:52.687Z,5876.00
2019-03-08T11:38:52.693Z,6188.00
2019-03-08T11:39:52.666Z,7484.00
2019-03-08T11:40:52.657Z,7092.00
2019-03-08T11:41:52.641Z,5132.00
2019-03-08T11:42:52.630Z,5996.00
2019-03-08T11:43:52.621Z,5352.00
2019-03-08T11:44:52.628Z,5868.00
2019-03-08T11:45:52.601Z,5040.00
2019-03-08T11:46:53.786Z,5012.00
2019-03-08T11:47:52.574Z,4912.00
2019-03-08T11:48:52.565Z,4072.00
2019-03-08T11:49:52.559Z,3420.00
2019-03-08T11:50:52.556Z,3384.00
2019-03-08T11:51:52.530Z,3688.00
2019-03-08T11:52:52.537Z,5956.00
2019-03-08T11:53:56.182Z,6420.00
2019-03-08T11:54:52.496Z,7044.00
2019-03-08T11:55:52.510Z,7504.00
2019-03-08T11:56:56.180Z,7908.00
2019-03-08T11:57:52.469Z,8160.00
2019-03-08T11:58:52.467Z,8464.00
2019-03-08T11:59:52.441Z,8560.00
2019-03-08T12:00:53.200Z,8704.00
2019-03-08T12:01:52.442Z,8496.00
2019-03-08T12:02:52.416Z,8164.00
2019-03-08T12:03:52.397Z,7876.00
2019-03-08T12:04:52.393Z,7080.00
2019-03-08T12:05:52.373Z,6272.00
2019-03-08T12:06:52.362Z,5616.00
2019-03-08T12:07:52.364Z,5580.00
2019-03-08T12:08:52.341Z,5752.00
2019-03-08T12:09:52.330Z,6048.00
2019-03-08T12:10:52.465Z,6244.00
2019-03-08T12:11:52.314Z,6556.00
2019-03-08T12:12:52.309Z,7056.00
2019-03-08T12:13:52.281Z,7908.00
2019-03-08T12:14:52.277Z,6908.00
2019-03-08T12:15:52.261Z,7976.00
2019-03-08T12:16:52.282Z,8272.00
2019-03-08T12:17:52.249Z,7776.00
2019-03-08T12:18:52.241Z,8068.00
2019-03-08T12:19:52.219Z,7344.00
2019-03-08T12:20:52.212Z,6908.00
2019-03-08T12:21:52.193Z,6464.00
2019-03-08T12:22:52.198Z,5804.00
2019-03-08T12:23:52.169Z,6572.00
2019-03-08T12:24:52.169Z,7056.00
2019-03-08T12:25:52.146Z,8508.00
2019-03-08T12:26:52.182Z,6340.00
2019-03-08T12:27:52.125Z,5744.00
2019-03-08T12:28:52.121Z,6032.00
2019-03-08T12:29:52.117Z,6568.00
2019-03-08T12:30:52.089Z,6388.00
2019-03-08T12:31:52.082Z,6548.00
2019-03-08T12:32:52.091Z,6864.00
2019-03-08T12:33:52.064Z,7116.00
2019-03-08T12:34:52.062Z,8916.00
2019-03-08T12:35:52.039Z,9040.00
2019-03-08T12:36:52.077Z,8520.00
2019-03-08T12:37:52.034Z,8924.00
2019-03-08T12:38:52.001Z,9144.00
2019-03-08T12:39:51.997Z,8120.00
2019-03-08T12:40:52.017Z,7120.00